Indianapolis, Indiana
Current Conditions -  °F | °C
As of 6:54 AM on Wednesday 28 Jan 2015 (Local Time) from KIND Reporting Station
Haze Haze  
Wind Chill:   Ceiling: Unl
Heat Index: 16°   Visibility: 6mi
Dew Point: 13°   Wind: 5mph
Humidity: 88%   Direction: 130°SE
Pressure: 30.31"   Gusts: NA
Location:  39.77°N, 86.15°W
Report Text: KIND 281154Z 13004KT 6SM BR CLR M09/M11 A3031 RMK AO2 SLP275 T10891106 11078 21094 51007
Loading
Personal Weather Stations






























Interactive Weather Map New forecast layout! Learn more

10-Day Weather Forecast

Advertisements
Track Severe Weather on mobile